Terminal Aerodrome Forecast
Issued by NWS

Home | Current Version | Previous Version | Text Only | Print | Product List | Glossary On
Versions: 1 2 3 4 5 6 7 8 9 10 11 12 13 14 15 16 17 18 19 20 21 22 23 24 25 26 27 28 29 30 31 32 33 34 35 36 37
000
FTUS44 KFWD 181121
TAFFTW
TAF
KFTW 181121Z 1812/1912 01007KT 6SM BR SCT006 OVC025
      TEMPO 1812/1814 BKN006
     FM181400 03006KT 4SM -RA BR OVC006
     FM181800 35005KT 4SM BR VCSH OVC006
     FM190300 22004KT 5SM BR BKN010
     FM190800 19003KT 3SM BR OVC006=

USA.gov is the U.S. government's official web portal to all federal, state and local government web resources and services.